sensor_id;sensor_type;location;lat;lon;timestamp;temperature;humidity
28520;DHT22;15732;48.534;20.382;2023-04-07T00:02:00;3.90;99.90
28520;DHT22;15732;48.534;20.382;2023-04-07T00:04:27;3.90;99.90
28520;DHT22;15732;48.534;20.382;2023-04-07T00:06:55;3.90;99.90
28520;DHT22;15732;48.534;20.382;2023-04-07T00:09:26;3.90;99.90
28520;DHT22;15732;48.534;20.382;2023-04-07T00:11:57;3.90;99.90
28520;DHT22;15732;48.534;20.382;2023-04-07T00:14:27;3.90;99.90
28520;DHT22;15732;48.534;20.382;2023-04-07T00:16:55;3.90;99.90
28520;DHT22;15732;48.534;20.382;2023-04-07T00:19:22;3.90;99.90
28520;DHT22;15732;48.534;20.382;2023-04-07T00:21:49;3.90;99.90
28520;DHT22;15732;48.534;20.382;2023-04-07T00:24:17;3.90;99.90
28520;DHT22;15732;48.534;20.382;2023-04-07T00:26:44;3.90;99.90
28520;DHT22;15732;48.534;20.382;2023-04-07T00:29:12;3.90;99.90
28520;DHT22;15732;48.534;20.382;2023-04-07T00:31:43;3.90;99.90
28520;DHT22;15732;48.534;20.382;2023-04-07T00:34:11;3.90;99.90
28520;DHT22;15732;48.534;20.382;2023-04-07T00:36:38;3.90;99.90
28520;DHT22;15732;48.534;20.382;2023-04-07T00:39:05;3.90;99.90
28520;DHT22;15732;48.534;20.382;2023-04-07T00:41:35;3.90;99.90
28520;DHT22;15732;48.534;20.382;2023-04-07T00:44:03;3.90;99.90
28520;DHT22;15732;48.534;20.382;2023-04-07T00:46:31;3.90;99.90
28520;DHT22;15732;48.534;20.382;2023-04-07T00:48:59;3.90;99.90
28520;DHT22;15732;48.534;20.382;2023-04-07T00:51:26;4.00;99.90
28520;DHT22;15732;48.534;20.382;2023-04-07T00:53:56;3.90;99.90
28520;DHT22;15732;48.534;20.382;2023-04-07T00:56:28;4.00;99.90
28520;DHT22;15732;48.534;20.382;2023-04-07T00:58:55;3.90;99.90
28520;DHT22;15732;48.534;20.382;2023-04-07T01:01:26;4.00;99.90
28520;DHT22;15732;48.534;20.382;2023-04-07T01:04:31;3.90;99.90
28520;DHT22;15732;48.534;20.382;2023-04-07T01:07:05;4.00;99.90
28520;DHT22;15732;48.534;20.382;2023-04-07T01:09:46;3.90;99.90
28520;DHT22;15732;48.534;20.382;2023-04-07T01:15:11;3.90;99.90
28520;DHT22;15732;48.534;20.382;2023-04-07T01:17:47;3.90;99.90
28520;DHT22;15732;48.534;20.382;2023-04-07T01:20:18;3.90;99.90
28520;DHT22;15732;48.534;20.382;2023-04-07T01:22:56;3.90;99.90
28520;DHT22;15732;48.534;20.382;2023-04-07T01:31:04;3.90;99.90
28520;DHT22;15732;48.534;20.382;2023-04-07T01:33:32;3.90;99.90
28520;DHT22;15732;48.534;20.382;2023-04-07T01:36:05;3.90;99.90
28520;DHT22;15732;48.534;20.382;2023-04-07T01:38:33;4.00;99.90
28520;DHT22;15732;48.534;20.382;2023-04-07T01:41:00;3.90;99.90
28520;DHT22;15732;48.534;20.382;2023-04-07T01:43:30;3.90;99.90
28520;DHT22;15732;48.534;20.382;2023-04-07T01:45:57;3.90;99.90
28520;DHT22;15732;48.534;20.382;2023-04-07T01:48:25;3.90;99.90
28520;DHT22;15732;48.534;20.382;2023-04-07T01:50:53;3.90;99.90
28520;DHT22;15732;48.534;20.382;2023-04-07T01:53:22;3.90;99.90
28520;DHT22;15732;48.534;20.382;2023-04-07T01:55:49;3.90;99.90
28520;DHT22;15732;48.534;20.382;2023-04-07T01:58:18;3.90;99.90
28520;DHT22;15732;48.534;20.382;2023-04-07T02:00:45;3.90;99.90
28520;DHT22;15732;48.534;20.382;2023-04-07T02:03:19;3.90;99.90
28520;DHT22;15732;48.534;20.382;2023-04-07T02:05:49;3.90;99.90
28520;DHT22;15732;48.534;20.382;2023-04-07T02:08:23;3.90;99.90
28520;DHT22;15732;48.534;20.382;2023-04-07T02:10:54;3.90;99.90
28520;DHT22;15732;48.534;20.382;2023-04-07T02:13:23;3.90;99.90
28520;DHT22;15732;48.534;20.382;2023-04-07T02:15:55;3.80;99.90
28520;DHT22;15732;48.534;20.382;2023-04-07T02:18:23;3.80;99.90
28520;DHT22;15732;48.534;20.382;2023-04-07T02:20:53;3.80;99.90
28520;DHT22;15732;48.534;20.382;2023-04-07T02:23:26;3.80;99.90
28520;DHT22;15732;48.534;20.382;2023-04-07T02:25:55;3.80;99.90
28520;DHT22;15732;48.534;20.382;2023-04-07T02:28:23;3.80;99.90
28520;DHT22;15732;48.534;20.382;2023-04-07T02:30:50;3.90;99.90
28520;DHT22;15732;48.534;20.382;2023-04-07T02:33:21;3.90;99.90
28520;DHT22;15732;48.534;20.382;2023-04-07T02:35:52;3.90;99.90
28520;DHT22;15732;48.534;20.382;2023-04-07T02:38:20;3.90;99.90
28520;DHT22;15732;48.534;20.382;2023-04-07T02:40:47;3.90;99.90
28520;DHT22;15732;48.534;20.382;2023-04-07T02:43:15;3.90;99.90
28520;DHT22;15732;48.534;20.382;2023-04-07T02:45:47;3.90;99.90
28520;DHT22;15732;48.534;20.382;2023-04-07T02:48:15;3.80;99.90
28520;DHT22;15732;48.534;20.382;2023-04-07T02:50:46;3.80;99.90
28520;DHT22;15732;48.534;20.382;2023-04-07T02:53:13;3.80;99.90
28520;DHT22;15732;48.534;20.382;2023-04-07T02:55:45;3.80;99.90
28520;DHT22;15732;48.534;20.382;2023-04-07T02:58:12;3.70;99.90
28520;DHT22;15732;48.534;20.382;2023-04-07T03:00:39;3.80;99.90
28520;DHT22;15732;48.534;20.382;2023-04-07T03:03:06;3.70;99.90
28520;DHT22;15732;48.534;20.382;2023-04-07T03:05:37;3.70;99.90
28520;DHT22;15732;48.534;20.382;2023-04-07T03:08:05;3.60;99.90
28520;DHT22;15732;48.534;20.382;2023-04-07T03:10:36;3.70;99.90
28520;DHT22;15732;48.534;20.382;2023-04-07T03:13:03;3.70;99.90
28520;DHT22;15732;48.534;20.382;2023-04-07T03:15:31;3.70;99.90
28520;DHT22;15732;48.534;20.382;2023-04-07T03:17:59;3.70;99.90
28520;DHT22;15732;48.534;20.382;2023-04-07T03:20:26;3.80;99.90
28520;DHT22;15732;48.534;20.382;2023-04-07T03:22:54;3.80;99.90
28520;DHT22;15732;48.534;20.382;2023-04-07T03:25:21;3.80;99.90
28520;DHT22;15732;48.534;20.382;2023-04-07T03:27:49;3.80;99.90
28520;DHT22;15732;48.534;20.382;2023-04-07T03:30:16;3.80;99.90
28520;DHT22;15732;48.534;20.382;2023-04-07T03:32:44;3.80;99.90
28520;DHT22;15732;48.534;20.382;2023-04-07T03:35:11;3.90;99.90
28520;DHT22;15732;48.534;20.382;2023-04-07T03:37:43;3.90;99.90
28520;DHT22;15732;48.534;20.382;2023-04-07T03:40:14;3.90;99.90
28520;DHT22;15732;48.534;20.382;2023-04-07T03:42:44;3.90;99.90
28520;DHT22;15732;48.534;20.382;2023-04-07T03:45:12;3.90;99.90
28520;DHT22;15732;48.534;20.382;2023-04-07T03:47:40;3.90;99.90
28520;DHT22;15732;48.534;20.382;2023-04-07T03:50:09;3.90;99.90
28520;DHT22;15732;48.534;20.382;2023-04-07T03:52:41;3.90;99.90
28520;DHT22;15732;48.534;20.382;2023-04-07T03:55:09;3.90;99.90
28520;DHT22;15732;48.534;20.382;2023-04-07T03:57:36;3.90;99.90
28520;DHT22;15732;48.534;20.382;2023-04-07T04:00:06;3.90;99.90
28520;DHT22;15732;48.534;20.382;2023-04-07T04:02:34;3.90;99.90
28520;DHT22;15732;48.534;20.382;2023-04-07T04:05:02;3.90;99.90
28520;DHT22;15732;48.534;20.382;2023-04-07T04:07:30;3.90;99.90
28520;DHT22;15732;48.534;20.382;2023-04-07T04:09:59;3.90;99.90
28520;DHT22;15732;48.534;20.382;2023-04-07T04:12:26;3.90;99.90
28520;DHT22;15732;48.534;20.382;2023-04-07T04:14:54;3.90;99.90
28520;DHT22;15732;48.534;20.382;2023-04-07T04:17:25;3.80;99.90
28520;DHT22;15732;48.534;20.382;2023-04-07T04:19:52;3.80;99.90
28520;DHT22;15732;48.534;20.382;2023-04-07T04:22:24;3.80;99.90
28520;DHT22;15732;48.534;20.382;2023-04-07T04:24:55;3.90;99.90
28520;DHT22;15732;48.534;20.382;2023-04-07T04:27:23;3.80;99.90
28520;DHT22;15732;48.534;20.382;2023-04-07T04:29:54;3.90;99.90
28520;DHT22;15732;48.534;20.382;2023-04-07T04:32:25;3.90;99.90
28520;DHT22;15732;48.534;20.382;2023-04-07T04:34:53;3.90;99.90
28520;DHT22;15732;48.534;20.382;2023-04-07T04:37:20;3.90;99.90
28520;DHT22;15732;48.534;20.382;2023-04-07T04:39:47;3.90;99.90
28520;DHT22;15732;48.534;20.382;2023-04-07T04:42:15;3.90;99.90
28520;DHT22;15732;48.534;20.382;2023-04-07T04:44:46;3.90;99.90
28520;DHT22;15732;48.534;20.382;2023-04-07T04:47:17;3.90;99.90
28520;DHT22;15732;48.534;20.382;2023-04-07T04:49:45;3.90;99.90
28520;DHT22;15732;48.534;20.382;2023-04-07T04:52:12;3.80;99.90
28520;DHT22;15732;48.534;20.382;2023-04-07T04:54:43;3.80;99.90
28520;DHT22;15732;48.534;20.382;2023-04-07T04:57:14;3.80;99.90
28520;DHT22;15732;48.534;20.382;2023-04-07T04:59:42;3.80;99.90
28520;DHT22;15732;48.534;20.382;2023-04-07T05:02:09;3.80;99.90
28520;DHT22;15732;48.534;20.382;2023-04-07T05:04:36;3.80;99.90
28520;DHT22;15732;48.534;20.382;2023-04-07T05:07:08;3.80;99.90
28520;DHT22;15732;48.534;20.382;2023-04-07T05:09:35;3.80;99.90
28520;DHT22;15732;48.534;20.382;2023-04-07T05:12:07;3.80;99.90
28520;DHT22;15732;48.534;20.382;2023-04-07T05:14:34;3.80;99.90
28520;DHT22;15732;48.534;20.382;2023-04-07T05:17:05;3.90;99.90
28520;DHT22;15732;48.534;20.382;2023-04-07T05:19:32;3.80;99.90
28520;DHT22;15732;48.534;20.382;2023-04-07T05:22:00;3.80;99.90
28520;DHT22;15732;48.534;20.382;2023-04-07T05:24:28;3.80;99.90
28520;DHT22;15732;48.534;20.382;2023-04-07T05:26:59;3.70;99.90
28520;DHT22;15732;48.534;20.382;2023-04-07T05:29:27;3.80;99.90
28520;DHT22;15732;48.534;20.382;2023-04-07T05:31:58;3.70;99.90
28520;DHT22;15732;48.534;20.382;2023-04-07T05:34:27;3.70;99.90
28520;DHT22;15732;48.534;20.382;2023-04-07T05:36:54;3.70;99.90
28520;DHT22;15732;48.534;20.382;2023-04-07T05:39:22;3.70;99.90
28520;DHT22;15732;48.534;20.382;2023-04-07T05:41:50;3.70;99.90
28520;DHT22;15732;48.534;20.382;2023-04-07T05:44:22;3.70;99.90
28520;DHT22;15732;48.534;20.382;2023-04-07T05:46:49;3.80;99.90
28520;DHT22;15732;48.534;20.382;2023-04-07T05:49:21;3.80;99.90
28520;DHT22;15732;48.534;20.382;2023-04-07T05:51:48;3.80;99.90
28520;DHT22;15732;48.534;20.382;2023-04-07T05:54:15;3.80;99.90
28520;DHT22;15732;48.534;20.382;2023-04-07T05:56:45;3.80;99.90
28520;DHT22;15732;48.534;20.382;2023-04-07T05:59:13;3.80;99.90
28520;DHT22;15732;48.534;20.382;2023-04-07T06:01:44;3.80;99.90
28520;DHT22;15732;48.534;20.382;2023-04-07T06:04:12;3.80;99.90
28520;DHT22;15732;48.534;20.382;2023-04-07T06:06:43;3.80;99.90
28520;DHT22;15732;48.534;20.382;2023-04-07T06:09:11;3.70;99.90
28520;DHT22;15732;48.534;20.382;2023-04-07T06:11:38;3.80;99.90
28520;DHT22;15732;48.534;20.382;2023-04-07T06:14:05;3.80;99.90
28520;DHT22;15732;48.534;20.382;2023-04-07T06:16:33;3.80;99.90
28520;DHT22;15732;48.534;20.382;2023-04-07T06:19:00;3.80;99.90
28520;DHT22;15732;48.534;20.382;2023-04-07T06:21:32;3.90;99.90
28520;DHT22;15732;48.534;20.382;2023-04-07T06:23:59;3.90;99.90
28520;DHT22;15732;48.534;20.382;2023-04-07T06:26:30;4.00;99.90
28520;DHT22;15732;48.534;20.382;2023-04-07T06:28:58;4.00;99.90
28520;DHT22;15732;48.534;20.382;2023-04-07T06:31:25;4.00;99.90
28520;DHT22;15732;48.534;20.382;2023-04-07T06:33:53;4.00;99.90
28520;DHT22;15732;48.534;20.382;2023-04-07T06:36:20;4.00;99.90
28520;DHT22;15732;48.534;20.382;2023-04-07T06:38:49;4.00;99.90
28520;DHT22;15732;48.534;20.382;2023-04-07T06:41:20;4.10;99.90
28520;DHT22;15732;48.534;20.382;2023-04-07T06:43:48;4.10;99.90
28520;DHT22;15732;48.534;20.382;2023-04-07T06:46:17;4.10;99.90
28520;DHT22;15732;48.534;20.382;2023-04-07T06:48:45;4.10;99.90
28520;DHT22;15732;48.534;20.382;2023-04-07T06:51:13;4.10;99.90
28520;DHT22;15732;48.534;20.382;2023-04-07T06:53:40;4.10;99.90
28520;DHT22;15732;48.534;20.382;2023-04-07T06:56:10;4.10;99.90
28520;DHT22;15732;48.534;20.382;2023-04-07T06:58:37;4.10;99.90
28520;DHT22;15732;48.534;20.382;2023-04-07T07:01:08;4.10;99.90
28520;DHT22;15732;48.534;20.382;2023-04-07T07:03:36;4.10;99.90
28520;DHT22;15732;48.534;20.382;2023-04-07T07:06:04;4.20;99.90
28520;DHT22;15732;48.534;20.382;2023-04-07T07:08:32;4.20;99.90
28520;DHT22;15732;48.534;20.382;2023-04-07T07:11:00;4.20;99.90
28520;DHT22;15732;48.534;20.382;2023-04-07T07:13:27;4.20;99.90
28520;DHT22;15732;48.534;20.382;2023-04-07T07:15:58;4.20;99.90
28520;DHT22;15732;48.534;20.382;2023-04-07T07:18:29;4.20;99.90
28520;DHT22;15732;48.534;20.382;2023-04-07T07:20:57;4.20;99.90
28520;DHT22;15732;48.534;20.382;2023-04-07T07:23:24;4.20;99.90
28520;DHT22;15732;48.534;20.382;2023-04-07T07:25:51;4.30;99.90
28520;DHT22;15732;48.534;20.382;2023-04-07T07:28:18;4.30;99.90
28520;DHT22;15732;48.534;20.382;2023-04-07T07:30:47;4.30;99.90
28520;DHT22;15732;48.534;20.382;2023-04-07T07:33:18;4.30;99.90
28520;DHT22;15732;48.534;20.382;2023-04-07T07:35:45;4.30;99.90
28520;DHT22;15732;48.534;20.382;2023-04-07T07:38:13;4.30;99.90
28520;DHT22;15732;48.534;20.382;2023-04-07T07:40:44;4.30;99.90
28520;DHT22;15732;48.534;20.382;2023-04-07T07:43:15;4.30;99.90
28520;DHT22;15732;48.534;20.382;2023-04-07T07:45:43;4.30;99.90
28520;DHT22;15732;48.534;20.382;2023-04-07T07:48:15;4.30;99.90
28520;DHT22;15732;48.534;20.382;2023-04-07T07:50:43;4.30;99.90
28520;DHT22;15732;48.534;20.382;2023-04-07T07:53:10;4.40;99.90
28520;DHT22;15732;48.534;20.382;2023-04-07T07:55:40;4.40;99.90
28520;DHT22;15732;48.534;20.382;2023-04-07T07:58:12;4.40;99.90
28520;DHT22;15732;48.534;20.382;2023-04-07T08:00:43;4.40;99.90
28520;DHT22;15732;48.534;20.382;2023-04-07T08:03:11;4.50;99.90
28520;DHT22;15732;48.534;20.382;2023-04-07T08:05:42;4.50;99.90
28520;DHT22;15732;48.534;20.382;2023-04-07T08:08:10;4.50;99.90
28520;DHT22;15732;48.534;20.382;2023-04-07T08:10:41;4.50;99.90
28520;DHT22;15732;48.534;20.382;2023-04-07T08:13:09;4.60;99.90
28520;DHT22;15732;48.534;20.382;2023-04-07T08:15:41;4.60;99.90
28520;DHT22;15732;48.534;20.382;2023-04-07T08:18:08;4.60;99.90
28520;DHT22;15732;48.534;20.382;2023-04-07T08:20:35;4.60;99.90
28520;DHT22;15732;48.534;20.382;2023-04-07T08:23:03;4.70;99.90
28520;DHT22;15732;48.534;20.382;2023-04-07T08:25:31;4.70;99.90
28520;DHT22;15732;48.534;20.382;2023-04-07T08:27:58;4.70;99.90
28520;DHT22;15732;48.534;20.382;2023-04-07T08:30:26;4.70;99.90
28520;DHT22;15732;48.534;20.382;2023-04-07T08:32:53;4.80;99.90
28520;DHT22;15732;48.534;20.382;2023-04-07T08:35:20;4.80;99.90
28520;DHT22;15732;48.534;20.382;2023-04-07T08:37:48;4.80;99.90
28520;DHT22;15732;48.534;20.382;2023-04-07T08:40:16;4.80;99.90
28520;DHT22;15732;48.534;20.382;2023-04-07T08:42:48;4.80;99.90
28520;DHT22;15732;48.534;20.382;2023-04-07T08:45:20;4.90;99.90
28520;DHT22;15732;48.534;20.382;2023-04-07T08:47:49;4.90;99.90
28520;DHT22;15732;48.534;20.382;2023-04-07T08:50:25;4.90;99.90
28520;DHT22;15732;48.534;20.382;2023-04-07T08:52:59;5.00;99.90
28520;DHT22;15732;48.534;20.382;2023-04-07T08:55:31;5.00;99.90
28520;DHT22;15732;48.534;20.382;2023-04-07T08:57:58;5.10;99.90
28520;DHT22;15732;48.534;20.382;2023-04-07T09:00:26;5.10;99.90
28520;DHT22;15732;48.534;20.382;2023-04-07T09:02:53;5.10;99.90
28520;DHT22;15732;48.534;20.382;2023-04-07T09:05:22;5.10;99.90
28520;DHT22;15732;48.534;20.382;2023-04-07T09:07:50;5.20;99.90
28520;DHT22;15732;48.534;20.382;2023-04-07T09:10:18;5.20;99.90
28520;DHT22;15732;48.534;20.382;2023-04-07T09:12:46;5.20;99.90
28520;DHT22;15732;48.534;20.382;2023-04-07T09:15:13;5.30;99.90
28520;DHT22;15732;48.534;20.382;2023-04-07T09:17:41;5.30;99.90
28520;DHT22;15732;48.534;20.382;2023-04-07T09:20:09;5.30;99.90
28520;DHT22;15732;48.534;20.382;2023-04-07T09:22:41;5.30;99.90
28520;DHT22;15732;48.534;20.382;2023-04-07T09:25:22;5.40;99.90
28520;DHT22;15732;48.534;20.382;2023-04-07T09:27:57;5.40;99.90
28520;DHT22;15732;48.534;20.382;2023-04-07T09:30:29;5.40;99.90
28520;DHT22;15732;48.534;20.382;2023-04-07T09:32:57;5.40;99.90
28520;DHT22;15732;48.534;20.382;2023-04-07T09:35:24;5.50;99.90
28520;DHT22;15732;48.534;20.382;2023-04-07T09:40:29;5.40;99.90
28520;DHT22;15732;48.534;20.382;2023-04-07T09:42:57;5.40;99.90
28520;DHT22;15732;48.534;20.382;2023-04-07T09:45:29;5.40;99.90
28520;DHT22;15732;48.534;20.382;2023-04-07T09:48:08;5.40;99.90
28520;DHT22;15732;48.534;20.382;2023-04-07T09:50:44;5.40;99.90
28520;DHT22;15732;48.534;20.382;2023-04-07T09:53:49;5.40;99.90
28520;DHT22;15732;48.534;20.382;2023-04-07T09:56:19;5.40;99.90
28520;DHT22;15732;48.534;20.382;2023-04-07T09:58:49;5.40;99.90
28520;DHT22;15732;48.534;20.382;2023-04-07T10:01:19;5.40;99.90
28520;DHT22;15732;48.534;20.382;2023-04-07T10:03:54;5.40;99.90
28520;DHT22;15732;48.534;20.382;2023-04-07T10:06:21;5.40;99.90
28520;DHT22;15732;48.534;20.382;2023-04-07T10:08:49;5.30;99.90
28520;DHT22;15732;48.534;20.382;2023-04-07T10:11:18;5.30;99.90
28520;DHT22;15732;48.534;20.382;2023-04-07T10:13:49;5.30;99.90
28520;DHT22;15732;48.534;20.382;2023-04-07T10:16:22;5.30;99.90
28520;DHT22;15732;48.534;20.382;2023-04-07T10:18:54;5.40;99.90
28520;DHT22;15732;48.534;20.382;2023-04-07T10:21:22;5.40;99.90
28520;DHT22;15732;48.534;20.382;2023-04-07T10:24:02;5.40;99.90
28520;DHT22;15732;48.534;20.382;2023-04-07T10:26:33;5.40;99.90
28520;DHT22;15732;48.534;20.382;2023-04-07T10:29:07;5.40;99.90
28520;DHT22;15732;48.534;20.382;2023-04-07T10:31:37;5.40;99.90
28520;DHT22;15732;48.534;20.382;2023-04-07T10:34:09;5.40;99.90
28520;DHT22;15732;48.534;20.382;2023-04-07T10:37:12;5.40;99.90
28520;DHT22;15732;48.534;20.382;2023-04-07T10:39:46;5.40;99.90
28520;DHT22;15732;48.534;20.382;2023-04-07T10:45:09;5.40;99.90
28520;DHT22;15732;48.534;20.382;2023-04-07T10:50:28;5.40;99.90
28520;DHT22;15732;48.534;20.382;2023-04-07T10:53:09;5.40;99.90
28520;DHT22;15732;48.534;20.382;2023-04-07T10:55:42;5.40;99.90
28520;DHT22;15732;48.534;20.382;2023-04-07T10:58:25;5.40;99.90
28520;DHT22;15732;48.534;20.382;2023-04-07T11:03:27;5.50;99.90
28520;DHT22;15732;48.534;20.382;2023-04-07T11:06:10;5.40;99.90
28520;DHT22;15732;48.534;20.382;2023-04-07T11:11:11;5.50;99.90
28520;DHT22;15732;48.534;20.382;2023-04-07T11:13:47;5.50;99.90
28520;DHT22;15732;48.534;20.382;2023-04-07T11:16:17;5.50;99.90
28520;DHT22;15732;48.534;20.382;2023-04-07T11:18:46;5.60;99.90
28520;DHT22;15732;48.534;20.382;2023-04-07T11:21:17;5.50;99.90
28520;DHT22;15732;48.534;20.382;2023-04-07T11:23:45;5.60;99.90
28520;DHT22;15732;48.534;20.382;2023-04-07T11:26:14;5.60;99.90
28520;DHT22;15732;48.534;20.382;2023-04-07T11:28:48;5.60;99.90
28520;DHT22;15732;48.534;20.382;2023-04-07T11:31:27;5.60;99.90
28520;DHT22;15732;48.534;20.382;2023-04-07T11:33:55;5.60;99.90
28520;DHT22;15732;48.534;20.382;2023-04-07T11:36:33;5.60;99.90
28520;DHT22;15732;48.534;20.382;2023-04-07T11:39:05;5.70;99.90
28520;DHT22;15732;48.534;20.382;2023-04-07T11:41:47;5.70;99.90
28520;DHT22;15732;48.534;20.382;2023-04-07T11:44:14;5.60;99.90
28520;DHT22;15732;48.534;20.382;2023-04-07T11:47:00;5.60;99.90
28520;DHT22;15732;48.534;20.382;2023-04-07T11:49:28;5.50;99.90
28520;DHT22;15732;48.534;20.382;2023-04-07T11:52:04;5.50;99.90
28520;DHT22;15732;48.534;20.382;2023-04-07T11:54:58;5.40;99.90
28520;DHT22;15732;48.534;20.382;2023-04-07T11:57:27;5.40;99.90
28520;DHT22;15732;48.534;20.382;2023-04-07T12:00:07;5.40;99.90
28520;DHT22;15732;48.534;20.382;2023-04-07T12:02:35;5.40;99.90
28520;DHT22;15732;48.534;20.382;2023-04-07T12:05:03;5.40;99.90
28520;DHT22;15732;48.534;20.382;2023-04-07T12:07:30;5.40;99.90
28520;DHT22;15732;48.534;20.382;2023-04-07T12:09:57;5.40;99.90
28520;DHT22;15732;48.534;20.382;2023-04-07T12:12:45;5.40;99.90
28520;DHT22;15732;48.534;20.382;2023-04-07T12:15:12;5.50;99.90
28520;DHT22;15732;48.534;20.382;2023-04-07T12:17:46;5.50;99.90
28520;DHT22;15732;48.534;20.382;2023-04-07T12:20:14;5.60;99.90
28520;DHT22;15732;48.534;20.382;2023-04-07T12:22:42;5.60;99.90
28520;DHT22;15732;48.534;20.382;2023-04-07T12:25:09;5.70;99.90
28520;DHT22;15732;48.534;20.382;2023-04-07T12:27:40;5.70;99.90
28520;DHT22;15732;48.534;20.382;2023-04-07T12:30:11;5.80;99.90
28520;DHT22;15732;48.534;20.382;2023-04-07T12:32:39;5.80;99.90
28520;DHT22;15732;48.534;20.382;2023-04-07T12:35:10;5.80;99.90
28520;DHT22;15732;48.534;20.382;2023-04-07T12:37:37;5.90;99.90
28520;DHT22;15732;48.534;20.382;2023-04-07T12:40:04;5.90;99.90
28520;DHT22;15732;48.534;20.382;2023-04-07T12:42:33;5.90;99.90
28520;DHT22;15732;48.534;20.382;2023-04-07T12:45:01;5.90;99.90
28520;DHT22;15732;48.534;20.382;2023-04-07T12:47:28;5.80;99.90
28520;DHT22;15732;48.534;20.382;2023-04-07T12:49:57;5.80;99.90
28520;DHT22;15732;48.534;20.382;2023-04-07T12:52:28;5.80;99.90
28520;DHT22;15732;48.534;20.382;2023-04-07T12:54:55;5.90;99.90
28520;DHT22;15732;48.534;20.382;2023-04-07T12:57:23;5.90;99.90
28520;DHT22;15732;48.534;20.382;2023-04-07T12:59:50;5.90;99.90
28520;DHT22;15732;48.534;20.382;2023-04-07T13:02:19;5.90;99.90
28520;DHT22;15732;48.534;20.382;2023-04-07T13:04:47;6.00;99.90
28520;DHT22;15732;48.534;20.382;2023-04-07T13:07:18;6.00;99.90
28520;DHT22;15732;48.534;20.382;2023-04-07T13:09:45;6.00;99.90
28520;DHT22;15732;48.534;20.382;2023-04-07T13:12:13;6.00;99.90
28520;DHT22;15732;48.534;20.382;2023-04-07T13:14:43;6.00;99.90
28520;DHT22;15732;48.534;20.382;2023-04-07T13:17:11;6.00;99.90
28520;DHT22;15732;48.534;20.382;2023-04-07T13:19:42;6.00;99.90
28520;DHT22;15732;48.534;20.382;2023-04-07T13:22:12;6.00;99.90
28520;DHT22;15732;48.534;20.382;2023-04-07T13:24:39;6.00;99.90
28520;DHT22;15732;48.534;20.382;2023-04-07T13:27:07;6.00;99.90
28520;DHT22;15732;48.534;20.382;2023-04-07T13:29:34;6.00;99.90
28520;DHT22;15732;48.534;20.382;2023-04-07T13:32:08;6.00;99.90
28520;DHT22;15732;48.534;20.382;2023-04-07T13:34:43;6.00;99.90
28520;DHT22;15732;48.534;20.382;2023-04-07T13:37:14;6.00;99.90
28520;DHT22;15732;48.534;20.382;2023-04-07T13:39:42;6.00;99.90
28520;DHT22;15732;48.534;20.382;2023-04-07T13:42:09;6.10;99.90
28520;DHT22;15732;48.534;20.382;2023-04-07T13:44:37;6.10;99.90
28520;DHT22;15732;48.534;20.382;2023-04-07T13:47:05;6.10;99.90
28520;DHT22;15732;48.534;20.382;2023-04-07T13:49:32;6.10;99.90
28520;DHT22;15732;48.534;20.382;2023-04-07T13:52:04;6.10;99.90
28520;DHT22;15732;48.534;20.382;2023-04-07T13:54:32;6.10;99.90
28520;DHT22;15732;48.534;20.382;2023-04-07T13:57:00;6.10;99.90
28520;DHT22;15732;48.534;20.382;2023-04-07T13:59:31;6.10;99.90
28520;DHT22;15732;48.534;20.382;2023-04-07T14:01:59;6.10;99.90
28520;DHT22;15732;48.534;20.382;2023-04-07T14:04:26;6.10;99.90
28520;DHT22;15732;48.534;20.382;2023-04-07T14:06:53;6.10;99.90
28520;DHT22;15732;48.534;20.382;2023-04-07T14:09:21;6.10;99.90
28520;DHT22;15732;48.534;20.382;2023-04-07T14:11:49;6.10;99.90
28520;DHT22;15732;48.534;20.382;2023-04-07T14:14:16;6.10;99.90
28520;DHT22;15732;48.534;20.382;2023-04-07T14:16:43;6.20;99.90
28520;DHT22;15732;48.534;20.382;2023-04-07T14:19:10;6.10;99.90
28520;DHT22;15732;48.534;20.382;2023-04-07T14:21:42;6.20;99.90
28520;DHT22;15732;48.534;20.382;2023-04-07T14:24:09;6.20;99.90
28520;DHT22;15732;48.534;20.382;2023-04-07T14:26:37;6.10;99.90
28520;DHT22;15732;48.534;20.382;2023-04-07T14:29:04;6.20;99.90
28520;DHT22;15732;48.534;20.382;2023-04-07T14:31:31;6.20;99.90
28520;DHT22;15732;48.534;20.382;2023-04-07T14:33:58;6.20;99.90
28520;DHT22;15732;48.534;20.382;2023-04-07T14:36:26;6.20;99.90
28520;DHT22;15732;48.534;20.382;2023-04-07T14:38:57;6.20;99.90
28520;DHT22;15732;48.534;20.382;2023-04-07T14:41:24;6.10;99.90
28520;DHT22;15732;48.534;20.382;2023-04-07T14:43:51;6.10;99.90
28520;DHT22;15732;48.534;20.382;2023-04-07T14:46:22;6.10;99.90
28520;DHT22;15732;48.534;20.382;2023-04-07T14:48:49;6.10;99.90
28520;DHT22;15732;48.534;20.382;2023-04-07T14:51:20;6.20;99.90
28520;DHT22;15732;48.534;20.382;2023-04-07T14:53:51;6.20;99.90
28520;DHT22;15732;48.534;20.382;2023-04-07T14:56:21;6.20;99.90
28520;DHT22;15732;48.534;20.382;2023-04-07T14:58:48;6.20;99.90
28520;DHT22;15732;48.534;20.382;2023-04-07T15:01:16;6.20;99.90
28520;DHT22;15732;48.534;20.382;2023-04-07T15:03:44;6.20;99.90
28520;DHT22;15732;48.534;20.382;2023-04-07T15:06:12;6.20;99.90
28520;DHT22;15732;48.534;20.382;2023-04-07T15:08:39;6.20;99.90
28520;DHT22;15732;48.534;20.382;2023-04-07T15:11:11;6.20;99.90
28520;DHT22;15732;48.534;20.382;2023-04-07T15:13:42;6.20;99.90
28520;DHT22;15732;48.534;20.382;2023-04-07T15:16:14;6.20;99.90
28520;DHT22;15732;48.534;20.382;2023-04-07T15:18:45;6.20;99.90
28520;DHT22;15732;48.534;20.382;2023-04-07T15:21:13;6.20;99.90
28520;DHT22;15732;48.534;20.382;2023-04-07T15:23:41;6.20;99.90
28520;DHT22;15732;48.534;20.382;2023-04-07T15:26:12;6.20;99.90
28520;DHT22;15732;48.534;20.382;2023-04-07T15:28:39;6.20;99.90
28520;DHT22;15732;48.534;20.382;2023-04-07T15:31:06;6.20;99.90
28520;DHT22;15732;48.534;20.382;2023-04-07T15:33:38;6.20;99.90
28520;DHT22;15732;48.534;20.382;2023-04-07T15:36:06;6.20;99.90
28520;DHT22;15732;48.534;20.382;2023-04-07T15:38:38;6.20;99.90
28520;DHT22;15732;48.534;20.382;2023-04-07T15:41:06;6.20;99.90
28520;DHT22;15732;48.534;20.382;2023-04-07T15:43:37;6.20;99.90
28520;DHT22;15732;48.534;20.382;2023-04-07T15:46:04;6.20;99.90
28520;DHT22;15732;48.534;20.382;2023-04-07T15:48:32;6.20;99.90
28520;DHT22;15732;48.534;20.382;2023-04-07T15:51:04;6.20;99.90
28520;DHT22;15732;48.534;20.382;2023-04-07T15:53:32;6.20;99.90
28520;DHT22;15732;48.534;20.382;2023-04-07T15:55:59;6.20;99.90
28520;DHT22;15732;48.534;20.382;2023-04-07T15:58:26;6.20;99.90
28520;DHT22;15732;48.534;20.382;2023-04-07T16:00:54;6.10;99.90
28520;DHT22;15732;48.534;20.382;2023-04-07T16:03:21;6.10;99.90
28520;DHT22;15732;48.534;20.382;2023-04-07T16:05:52;6.10;99.90
28520;DHT22;15732;48.534;20.382;2023-04-07T16:08:20;6.10;99.90